createdAt,value
2022-07-26T00:00:52.480Z,13.90
2022-07-26T00:03:19.612Z,13.07
2022-07-26T00:05:46.678Z,13.15
2022-07-26T00:08:13.780Z,13.90
2022-07-26T00:10:48.881Z,15.20
2022-07-26T00:15:45.751Z,13.48
2022-07-26T00:18:13.311Z,12.20
2022-07-26T00:20:41.390Z,11.60
2022-07-26T00:23:11.424Z,13.27
2022-07-26T00:25:38.849Z,11.88
2022-07-26T00:28:06.726Z,11.63
2022-07-26T00:30:36.612Z,13.63
2022-07-26T00:33:05.625Z,11.05
2022-07-26T00:35:32.686Z,9.95
2022-07-26T00:37:59.792Z,9.95
2022-07-26T00:40:29.508Z,8.98
2022-07-26T00:42:56.670Z,8.80
2022-07-26T00:45:23.781Z,10.35
2022-07-26T00:47:51.384Z,9.15
2022-07-26T00:50:19.802Z,11.15
2022-07-26T00:52:50.308Z,10.05
2022-07-26T00:55:18.073Z,11.18
2022-07-26T00:57:45.546Z,9.60
2022-07-26T01:00:22.393Z,10.02
2022-07-26T01:02:50.225Z,12.60
2022-07-26T01:05:17.395Z,10.38
2022-07-26T01:07:45.135Z,10.98
2022-07-26T01:10:12.869Z,12.25
2022-07-26T01:12:41.357Z,11.20
2022-07-26T01:15:10.312Z,11.85
2022-07-26T01:17:38.307Z,13.50
2022-07-26T01:20:08.312Z,11.25
2022-07-26T01:22:35.772Z,14.55
2022-07-26T01:25:02.855Z,13.15
2022-07-26T01:27:33.945Z,13.95
2022-07-26T01:30:01.311Z,13.07
2022-07-26T01:32:28.393Z,12.90
2022-07-26T01:34:55.491Z,12.23
2022-07-26T01:37:22.537Z,13.43
2022-07-26T01:39:49.612Z,13.18
2022-07-26T01:42:16.616Z,12.13
2022-07-26T01:44:45.535Z,13.35
2022-07-26T01:47:12.528Z,18.40
2022-07-26T01:49:39.614Z,12.48
2022-07-26T01:52:06.645Z,14.20
2022-07-26T01:54:33.790Z,15.55
2022-07-26T01:57:00.867Z,13.85
2022-07-26T01:59:27.922Z,13.70
2022-07-26T02:01:55.057Z,15.45
2022-07-26T02:04:40.907Z,15.13
2022-07-26T02:07:12.859Z,14.50
2022-07-26T02:09:40.735Z,13.13
2022-07-26T02:12:08.431Z,12.85
2022-07-26T02:14:35.424Z,13.55
2022-07-26T02:17:03.632Z,12.48
2022-07-26T02:19:31.279Z,11.77
2022-07-26T02:21:59.238Z,13.75
2022-07-26T02:24:31.006Z,15.23
2022-07-26T02:26:59.575Z,18.17
2022-07-26T02:29:27.906Z,14.85
2022-07-26T02:31:56.016Z,15.82
2022-07-26T02:34:23.112Z,18.85
2022-07-26T02:36:50.195Z,12.38
2022-07-26T02:39:17.836Z,11.77
2022-07-26T02:41:44.872Z,14.60
2022-07-26T02:44:12.121Z,13.52
2022-07-26T02:46:39.540Z,12.90
2022-07-26T02:49:06.757Z,14.73
2022-07-26T02:51:33.922Z,14.80
2022-07-26T02:54:00.947Z,13.38
2022-07-26T02:56:27.992Z,12.48
2022-07-26T02:58:55.052Z,13.82
2022-07-26T03:01:22.366Z,13.02
2022-07-26T03:03:51.052Z,13.32
2022-07-26T03:06:19.284Z,12.32
2022-07-26T03:08:46.875Z,14.32
2022-07-26T03:11:14.093Z,13.32
2022-07-26T03:13:41.205Z,13.10
2022-07-26T03:16:08.616Z,17.45
2022-07-26T03:18:36.024Z,17.38
2022-07-26T03:21:03.156Z,16.50
2022-07-26T03:23:33.421Z,15.52
2022-07-26T03:26:02.127Z,18.58
2022-07-26T03:28:33.627Z,16.10
2022-07-26T03:31:01.323Z,16.98
2022-07-26T03:33:29.450Z,16.58
2022-07-26T03:35:57.673Z,15.77
2022-07-26T03:38:24.798Z,14.18
2022-07-26T03:40:52.469Z,14.88
2022-07-26T03:43:23.108Z,14.52
2022-07-26T03:45:51.014Z,15.60
2022-07-26T03:48:21.794Z,15.48
2022-07-26T03:50:49.592Z,13.70
2022-07-26T03:53:19.737Z,15.60
2022-07-26T03:56:05.730Z,13.45
2022-07-26T03:58:32.881Z,15.18
2022-07-26T04:01:00.005Z,15.65
2022-07-26T04:03:30.400Z,14.82
2022-07-26T04:05:58.029Z,14.10
2022-07-26T04:08:25.405Z,15.23
2022-07-26T04:10:52.663Z,12.85
2022-07-26T04:13:20.538Z,12.95
2022-07-26T04:15:48.898Z,12.73
2022-07-26T04:18:15.959Z,13.50
2022-07-26T04:20:43.230Z,12.95
2022-07-26T04:23:11.483Z,16.42
2022-07-26T04:25:41.023Z,13.55
2022-07-26T04:28:09.998Z,14.73
2022-07-26T04:30:40.650Z,14.43
2022-07-26T04:33:08.283Z,13.45
2022-07-26T04:35:35.737Z,14.02
2022-07-26T04:38:04.140Z,16.17
2022-07-26T04:40:33.658Z,12.20
2022-07-26T04:43:02.177Z,11.73
2022-07-26T04:45:30.466Z,14.27
2022-07-26T04:47:58.344Z,13.50
2022-07-26T04:50:25.732Z,14.82
2022-07-26T04:52:52.833Z,14.50
2022-07-26T04:55:20.804Z,16.45
2022-07-26T04:57:48.100Z,17.75
2022-07-26T05:00:23.076Z,15.73
2022-07-26T05:02:56.082Z,13.95
2022-07-26T05:05:25.246Z,14.63
2022-07-26T05:07:54.835Z,14.48
2022-07-26T05:10:23.477Z,17.98
2022-07-26T05:12:50.521Z,17.23
2022-07-26T05:15:20.656Z,17.52
2022-07-26T05:17:47.900Z,21.33
2022-07-26T05:20:17.027Z,16.60
2022-07-26T05:22:44.607Z,18.60
2022-07-26T05:25:11.669Z,23.58
2022-07-26T05:27:40.596Z,22.15
2022-07-26T05:30:09.020Z,19.00
2022-07-26T05:32:36.255Z,15.20
2022-07-26T05:35:03.625Z,16.52
2022-07-26T05:37:30.724Z,16.98
2022-07-26T05:39:57.705Z,19.17
2022-07-26T05:42:25.776Z,18.88
2022-07-26T05:44:55.979Z,19.15
2022-07-26T05:47:23.187Z,17.00
2022-07-26T05:49:50.561Z,18.00
2022-07-26T05:52:17.628Z,17.38
2022-07-26T05:54:44.669Z,15.80
2022-07-26T05:57:14.249Z,18.63
2022-07-26T05:59:41.333Z,17.75
2022-07-26T06:02:08.544Z,18.40
2022-07-26T06:04:36.192Z,19.38
2022-07-26T06:07:03.306Z,15.90
2022-07-26T06:09:30.657Z,14.60
2022-07-26T06:11:57.739Z,17.33
2022-07-26T06:14:24.759Z,18.10
2022-07-26T06:16:51.896Z,16.73
2022-07-26T06:19:19.208Z,14.57
2022-07-26T06:21:46.257Z,17.80
2022-07-26T06:24:13.707Z,16.83
2022-07-26T06:26:40.981Z,14.73
2022-07-26T06:29:08.548Z,16.25
2022-07-26T06:31:35.868Z,15.90
2022-07-26T06:34:03.038Z,15.40
2022-07-26T06:36:31.119Z,12.73
2022-07-26T06:38:59.045Z,16.23
2022-07-26T06:41:26.494Z,15.27
2022-07-26T06:43:53.784Z,13.95
2022-07-26T06:46:21.621Z,15.35
2022-07-26T06:48:53.123Z,16.25
2022-07-26T06:51:27.151Z,12.15
2022-07-26T06:53:54.408Z,14.77
2022-07-26T06:56:21.519Z,13.40
2022-07-26T06:58:51.279Z,11.80
2022-07-26T07:01:51.664Z,16.23
2022-07-26T07:04:05.782Z,11.95
2022-07-26T07:06:35.409Z,14.95
2022-07-26T07:09:02.459Z,13.88
2022-07-26T07:11:29.501Z,16.45
2022-07-26T07:13:57.367Z,10.88
2022-07-26T07:16:24.468Z,15.50
2022-07-26T07:18:53.978Z,14.73
2022-07-26T07:21:21.889Z,12.98
2022-07-26T07:23:48.980Z,13.52
2022-07-26T07:26:16.838Z,17.13
2022-07-26T07:28:43.858Z,15.32
2022-07-26T07:31:10.965Z,14.82
2022-07-26T07:33:52.499Z,15.68
2022-07-26T07:36:21.462Z,14.27
2022-07-26T07:38:49.488Z,14.13
2022-07-26T07:41:16.703Z,14.38
2022-07-26T07:43:43.671Z,14.43
2022-07-26T07:46:12.596Z,13.98
2022-07-26T07:48:46.624Z,11.27
2022-07-26T07:51:14.607Z,16.63
2022-07-26T07:53:41.800Z,12.50
2022-07-26T07:56:08.811Z,17.67
2022-07-26T07:58:35.880Z,12.10
2022-07-26T08:01:03.046Z,13.57
2022-07-26T08:03:38.929Z,14.70
2022-07-26T08:06:09.019Z,12.45
2022-07-26T08:08:37.419Z,13.45
2022-07-26T08:11:07.794Z,12.65
2022-07-26T08:13:35.416Z,14.65
2022-07-26T08:16:04.997Z,14.52
2022-07-26T08:18:42.038Z,13.35
2022-07-26T08:21:20.627Z,14.18
2022-07-26T08:23:47.676Z,16.58
2022-07-26T08:26:14.761Z,12.18
2022-07-26T08:28:58.411Z,15.30
2022-07-26T08:31:30.181Z,12.60
2022-07-26T08:33:57.350Z,13.85
2022-07-26T08:36:28.197Z,17.20
2022-07-26T08:38:58.971Z,13.52
2022-07-26T08:41:26.141Z,12.88
2022-07-26T08:43:53.901Z,13.85
2022-07-26T08:46:25.893Z,15.07
2022-07-26T08:48:56.042Z,14.13
2022-07-26T08:51:24.651Z,14.02
2022-07-26T08:53:59.329Z,15.70
2022-07-26T08:56:32.575Z,12.77
2022-07-26T08:59:02.353Z,14.55
2022-07-26T09:01:29.471Z,13.30
2022-07-26T09:03:57.234Z,12.32
2022-07-26T09:06:25.511Z,12.02
2022-07-26T09:09:11.065Z,12.82
2022-07-26T09:11:39.208Z,12.35
2022-07-26T09:14:06.668Z,14.90
2022-07-26T09:16:37.541Z,12.52
2022-07-26T09:19:19.156Z,13.43
2022-07-26T09:21:48.976Z,13.27
2022-07-26T09:24:33.281Z,11.50
2022-07-26T09:27:01.469Z,9.45
2022-07-26T09:29:29.159Z,11.45
2022-07-26T09:32:15.379Z,10.50
2022-07-26T09:34:52.711Z,10.07
2022-07-26T09:37:34.931Z,13.38
2022-07-26T09:40:06.547Z,14.07
2022-07-26T09:42:36.840Z,14.43
2022-07-26T09:45:16.497Z,9.10
2022-07-26T09:47:43.552Z,11.15
2022-07-26T09:50:22.059Z,12.85
2022-07-26T09:52:59.896Z,10.15
2022-07-26T09:55:31.074Z,10.35
2022-07-26T09:58:06.384Z,10.15
2022-07-26T10:00:34.094Z,8.45
2022-07-26T10:03:01.612Z,9.30
2022-07-26T10:05:29.152Z,9.88
2022-07-26T10:07:56.661Z,10.80
2022-07-26T10:10:32.117Z,10.85
2022-07-26T10:13:03.033Z,7.80
2022-07-26T10:15:59.606Z,8.73
2022-07-26T10:18:39.291Z,11.95
2022-07-26T10:21:16.714Z,9.18
2022-07-26T10:23:46.392Z,11.32
2022-07-26T10:26:33.766Z,11.40
2022-07-26T10:29:18.955Z,11.82
2022-07-26T10:32:01.142Z,13.13
2022-07-26T10:34:36.392Z,9.57
2022-07-26T10:37:08.894Z,10.70
2022-07-26T10:39:39.128Z,9.95
2022-07-26T10:42:10.687Z,9.50
2022-07-26T10:44:46.734Z,13.57
2022-07-26T10:47:16.626Z,10.25
2022-07-26T10:49:52.500Z,14.77
2022-07-26T10:52:22.330Z,12.02
2022-07-26T10:55:07.076Z,9.85
2022-07-26T10:57:42.615Z,10.38
2022-07-26T11:00:20.773Z,13.27
2022-07-26T11:02:50.405Z,11.10
2022-07-26T11:05:18.869Z,10.05
2022-07-26T11:07:52.989Z,10.60
2022-07-26T11:10:35.117Z,10.10
2022-07-26T11:13:05.443Z,10.70
2022-07-26T11:15:33.638Z,11.00
2022-07-26T11:18:13.957Z,10.48
2022-07-26T11:20:43.565Z,10.68
2022-07-26T11:23:31.184Z,11.95
2022-07-26T11:26:08.605Z,11.25
2022-07-26T11:29:01.147Z,12.50
2022-07-26T11:31:50.519Z,10.38
2022-07-26T11:34:28.852Z,13.02
2022-07-26T11:36:58.584Z,11.10
2022-07-26T11:39:28.443Z,9.48
2022-07-26T11:42:21.845Z,10.93
2022-07-26T11:44:50.097Z,10.85
2022-07-26T11:47:24.299Z,11.50
2022-07-26T11:52:41.209Z,11.95
2022-07-26T11:55:08.966Z,9.85
2022-07-26T11:57:36.165Z,10.40
2022-07-26T12:00:04.600Z,12.27
2022-07-26T12:02:40.592Z,10.73
2022-07-26T12:05:23.206Z,12.75
2022-07-26T12:08:05.037Z,11.05
2022-07-26T12:10:32.630Z,12.95
2022-07-26T12:13:12.059Z,11.25
2022-07-26T12:15:53.441Z,12.68
2022-07-26T12:18:34.065Z,11.25
2022-07-26T12:21:09.335Z,10.18
2022-07-26T12:23:49.327Z,9.27
2022-07-26T12:26:24.901Z,12.02
2022-07-26T12:28:52.774Z,13.15
2022-07-26T12:31:31.157Z,12.05
2022-07-26T12:33:58.667Z,12.13
2022-07-26T12:36:28.365Z,11.07
2022-07-26T12:39:00.702Z,12.02
2022-07-26T12:41:33.221Z,12.02
2022-07-26T12:44:00.494Z,9.88
2022-07-26T12:46:27.678Z,13.48
2022-07-26T12:48:59.946Z,9.10
2022-07-26T12:51:27.665Z,12.32
2022-07-26T12:53:57.571Z,8.85
2022-07-26T12:56:24.836Z,14.65
2022-07-26T12:58:54.021Z,14.50
2022-07-26T13:01:21.401Z,12.68
2022-07-26T13:03:48.601Z,9.90
2022-07-26T13:06:15.638Z,11.02
2022-07-26T13:08:42.653Z,9.75
2022-07-26T13:11:10.352Z,12.65
2022-07-26T13:13:40.320Z,10.25
2022-07-26T13:16:11.856Z,10.07
2022-07-26T13:18:39.784Z,13.40
2022-07-26T13:21:07.143Z,12.90
2022-07-26T13:23:35.721Z,8.80
2022-07-26T13:26:04.065Z,11.10
2022-07-26T13:28:31.474Z,12.15
2022-07-26T13:30:58.657Z,10.98
2022-07-26T13:33:25.927Z,9.57
2022-07-26T13:35:53.154Z,9.63
2022-07-26T13:38:22.703Z,11.38
2022-07-26T13:40:50.508Z,10.13
2022-07-26T13:43:20.397Z,13.80
2022-07-26T13:45:47.510Z,10.23
2022-07-26T13:48:15.679Z,9.35
2022-07-26T13:50:42.836Z,9.32
2022-07-26T13:53:09.935Z,11.40
2022-07-26T13:55:36.977Z,10.20
2022-07-26T13:58:09.470Z,11.65
2022-07-26T14:00:37.349Z,12.40
2022-07-26T14:03:04.730Z,10.02
2022-07-26T14:05:31.954Z,7.75
2022-07-26T14:07:59.033Z,6.63
2022-07-26T14:10:26.261Z,7.63
2022-07-26T14:12:53.641Z,8.90
2022-07-26T14:15:23.095Z,6.93
2022-07-26T14:17:53.910Z,7.30
2022-07-26T14:20:21.851Z,7.28
2022-07-26T14:22:53.480Z,8.32
2022-07-26T14:25:21.778Z,11.32
2022-07-26T14:27:52.505Z,8.65
2022-07-26T14:30:20.792Z,9.55
2022-07-26T14:32:48.206Z,8.65
2022-07-26T14:35:17.267Z,6.75
2022-07-26T14:37:45.655Z,7.38
2022-07-26T14:40:17.465Z,8.63
2022-07-26T14:42:45.290Z,9.05
2022-07-26T14:45:13.676Z,9.50
2022-07-26T14:47:41.512Z,7.53
2022-07-26T14:50:10.235Z,11.48
2022-07-26T14:52:39.642Z,8.52
2022-07-26T14:55:07.302Z,9.27
2022-07-26T14:57:34.610Z,7.68
2022-07-26T15:00:11.993Z,9.35
2022-07-26T15:02:47.841Z,9.18
2022-07-26T15:05:16.696Z,7.88
2022-07-26T15:07:44.456Z,7.70
2022-07-26T15:10:13.745Z,7.50
2022-07-26T15:12:41.679Z,6.97
2022-07-26T15:15:10.155Z,10.20
2022-07-26T15:17:37.336Z,10.05
2022-07-26T15:20:05.744Z,7.15
2022-07-26T15:22:32.887Z,9.45
2022-07-26T15:24:59.949Z,8.50
2022-07-26T15:27:26.997Z,9.27
2022-07-26T15:29:57.135Z,9.63
2022-07-26T15:32:28.075Z,10.48
2022-07-26T15:34:55.152Z,7.57
2022-07-26T15:37:22.202Z,8.48
2022-07-26T15:39:49.563Z,8.38
2022-07-26T15:42:19.437Z,7.80
2022-07-26T15:44:48.571Z,7.85
2022-07-26T15:47:51.277Z,7.63
2022-07-26T15:50:08.896Z,7.13
2022-07-26T15:52:41.843Z,7.03
2022-07-26T15:55:09.901Z,7.82
2022-07-26T15:57:37.232Z,9.27
2022-07-26T16:00:11.654Z,6.85
2022-07-26T16:02:40.054Z,6.82
2022-07-26T16:05:07.989Z,7.70
2022-07-26T16:07:35.135Z,9.93
2022-07-26T16:10:03.719Z,9.13
2022-07-26T16:12:30.745Z,9.40
2022-07-26T16:14:57.821Z,8.70
2022-07-26T16:17:25.323Z,8.20
2022-07-26T16:19:53.599Z,9.98
2022-07-26T16:22:20.635Z,7.18
2022-07-26T16:24:47.665Z,8.35
2022-07-26T16:27:14.905Z,8.85
2022-07-26T16:29:42.073Z,8.30
2022-07-26T16:32:10.734Z,8.98
2022-07-26T16:34:38.044Z,9.55
2022-07-26T16:37:05.287Z,12.02
2022-07-26T16:39:32.322Z,7.53
2022-07-26T16:42:03.304Z,7.40
2022-07-26T16:44:33.579Z,8.10
2022-07-26T16:47:00.760Z,6.93
2022-07-26T16:49:27.969Z,8.23
2022-07-26T16:51:56.120Z,11.18
2022-07-26T16:54:23.319Z,9.25
2022-07-26T16:56:50.436Z,10.55
2022-07-26T16:59:18.041Z,7.53
2022-07-26T17:01:45.469Z,9.27
2022-07-26T17:04:16.670Z,10.13
2022-07-26T17:07:01.629Z,8.38
2022-07-26T17:09:31.810Z,9.85
2022-07-26T17:12:02.975Z,10.82
2022-07-26T17:14:34.400Z,10.32
2022-07-26T17:17:01.410Z,12.55
2022-07-26T17:19:28.952Z,8.20
2022-07-26T17:21:56.061Z,8.32
2022-07-26T17:24:23.260Z,9.88
2022-07-26T17:26:50.289Z,8.82
2022-07-26T17:29:17.444Z,11.30
2022-07-26T17:31:44.572Z,8.30
2022-07-26T17:34:11.811Z,8.23
2022-07-26T17:36:38.995Z,10.65
2022-07-26T17:39:06.078Z,10.60
2022-07-26T17:41:35.399Z,9.02
2022-07-26T17:44:03.257Z,7.55
2022-07-26T17:46:32.696Z,8.38
2022-07-26T17:49:00.627Z,9.32
2022-07-26T17:51:27.758Z,12.18
2022-07-26T17:53:54.775Z,8.45
2022-07-26T17:56:21.824Z,10.25
2022-07-26T17:58:48.900Z,10.00
2022-07-26T18:01:16.090Z,9.93
2022-07-26T18:03:43.216Z,9.95
2022-07-26T18:06:10.508Z,10.18
2022-07-26T18:08:37.905Z,8.90
2022-07-26T18:11:05.458Z,11.73
2022-07-26T18:13:33.084Z,8.50
2022-07-26T18:16:04.171Z,13.95
2022-07-26T18:18:35.988Z,9.15
2022-07-26T18:21:03.032Z,8.50
2022-07-26T18:23:30.049Z,10.70
2022-07-26T18:25:58.104Z,14.95
2022-07-26T18:28:25.224Z,11.45
2022-07-26T18:30:52.355Z,13.65
2022-07-26T18:33:19.432Z,17.73
2022-07-26T18:35:49.192Z,12.02
2022-07-26T18:38:16.405Z,10.68
2022-07-26T18:40:43.544Z,16.25
2022-07-26T18:43:10.711Z,12.75
2022-07-26T18:45:37.683Z,16.33
2022-07-26T18:48:04.899Z,14.93
2022-07-26T18:50:32.200Z,16.48
2022-07-26T18:52:59.507Z,16.17
2022-07-26T18:55:26.782Z,19.02
2022-07-26T18:57:53.909Z,11.68
2022-07-26T19:00:22.678Z,12.32
2022-07-26T19:02:52.026Z,15.52
2022-07-26T19:05:20.268Z,12.15
2022-07-26T19:07:47.349Z,10.68
2022-07-26T19:10:14.581Z,10.25
2022-07-26T19:12:43.693Z,10.43
2022-07-26T19:15:11.358Z,11.88
2022-07-26T19:17:38.408Z,10.98
2022-07-26T19:20:07.178Z,12.68
2022-07-26T19:22:37.686Z,10.65
2022-07-26T19:25:09.200Z,11.75
2022-07-26T19:27:37.356Z,9.98
2022-07-26T19:30:06.271Z,8.70
2022-07-26T19:32:33.762Z,10.80
2022-07-26T19:35:01.377Z,10.35
2022-07-26T19:37:28.586Z,11.13
2022-07-26T19:39:59.026Z,12.02
2022-07-26T19:42:26.480Z,10.45
2022-07-26T19:44:53.545Z,10.68
2022-07-26T19:47:20.649Z,9.63
2022-07-26T19:49:47.813Z,10.25
2022-07-26T19:52:14.846Z,11.73
2022-07-26T19:54:41.870Z,11.75
2022-07-26T19:57:09.001Z,11.30
2022-07-26T19:59:36.064Z,9.20
2022-07-26T20:02:06.025Z,8.90
2022-07-26T20:04:33.130Z,10.73
2022-07-26T20:07:01.342Z,11.93
2022-07-26T20:09:29.734Z,8.57
2022-07-26T20:11:57.648Z,10.30
2022-07-26T20:14:25.328Z,13.43
2022-07-26T20:16:56.113Z,11.98
2022-07-26T20:19:24.459Z,14.98
2022-07-26T20:21:51.525Z,12.13
2022-07-26T20:24:18.995Z,16.02
2022-07-26T20:26:46.192Z,17.67
2022-07-26T20:29:14.730Z,13.50
2022-07-26T20:31:41.942Z,15.90
2022-07-26T20:34:09.096Z,15.15
2022-07-26T20:36:38.950Z,15.00
2022-07-26T20:39:06.080Z,13.48
2022-07-26T20:41:34.223Z,14.45
2022-07-26T20:44:01.220Z,15.60
2022-07-26T20:46:29.334Z,15.45
2022-07-26T20:48:56.495Z,16.95
2022-07-26T20:51:23.679Z,14.57
2022-07-26T20:53:50.747Z,19.60
2022-07-26T20:56:17.829Z,17.83
2022-07-26T20:58:48.052Z,16.02
2022-07-26T21:01:15.594Z,16.15
2022-07-26T21:03:42.788Z,14.68
2022-07-26T21:06:09.961Z,16.80
2022-07-26T21:08:37.041Z,16.25
2022-07-26T21:11:04.191Z,15.90
2022-07-26T21:13:34.082Z,16.23
2022-07-26T21:16:01.116Z,17.58
2022-07-26T21:18:29.908Z,14.70
2022-07-26T21:20:57.760Z,14.25
2022-07-26T21:23:27.619Z,17.92
2022-07-26T21:25:58.242Z,11.90
2022-07-26T21:28:28.463Z,13.77
2022-07-26T21:30:55.770Z,14.77
2022-07-26T21:33:22.810Z,13.98
2022-07-26T21:35:49.935Z,14.40
2022-07-26T21:38:16.982Z,14.13
2022-07-26T21:40:44.144Z,13.88
2022-07-26T21:43:11.221Z,13.55
2022-07-26T21:45:38.445Z,12.45
2022-07-26T21:48:06.019Z,13.15
2022-07-26T21:50:33.321Z,10.20
2022-07-26T21:53:03.704Z,11.48
2022-07-26T21:55:30.882Z,10.85
2022-07-26T21:57:57.969Z,9.95
2022-07-26T22:00:25.055Z,9.93
2022-07-26T22:02:52.148Z,9.68
2022-07-26T22:05:37.649Z,9.80
2022-07-26T22:10:35.191Z,10.07
2022-07-26T22:13:11.149Z,8.77
2022-07-26T22:15:38.245Z,9.52
2022-07-26T22:18:05.649Z,8.95
2022-07-26T22:20:34.368Z,8.43
2022-07-26T22:23:05.506Z,8.75
2022-07-26T22:25:33.986Z,7.30
2022-07-26T22:28:01.673Z,11.15
2022-07-26T22:30:29.315Z,8.90
2022-07-26T22:32:58.003Z,10.82
2022-07-26T22:35:26.422Z,8.98
2022-07-26T22:38:07.911Z,13.68
2022-07-26T22:40:36.099Z,8.48
2022-07-26T22:43:03.432Z,8.15
2022-07-26T22:45:32.193Z,9.13
2022-07-26T22:48:03.300Z,8.18
2022-07-26T22:50:31.256Z,10.55
2022-07-26T22:53:01.716Z,7.78
2022-07-26T22:55:29.455Z,6.78
2022-07-26T22:57:56.659Z,8.85
2022-07-26T23:00:23.894Z,9.77
2022-07-26T23:02:51.337Z,6.97
2022-07-26T23:05:19.365Z,7.65
2022-07-26T23:07:48.284Z,9.30
2022-07-26T23:10:16.510Z,8.27
2022-07-26T23:12:46.552Z,7.65
2022-07-26T23:15:13.652Z,9.05
2022-07-26T23:17:40.914Z,6.30
2022-07-26T23:20:09.539Z,8.63
2022-07-26T23:22:37.116Z,7.97
2022-07-26T23:25:05.781Z,8.20
2022-07-26T23:27:32.872Z,8.88
2022-07-26T23:29:59.962Z,8.93
2022-07-26T23:32:27.107Z,8.10
2022-07-26T23:34:54.146Z,6.13
2022-07-26T23:37:21.229Z,5.47
2022-07-26T23:39:48.208Z,7.57
2022-07-26T23:42:15.212Z,6.63
2022-07-26T23:44:45.024Z,7.32
2022-07-26T23:47:12.254Z,7.18
2022-07-26T23:49:39.406Z,7.75
2022-07-26T23:52:09.430Z,6.85
2022-07-26T23:54:36.703Z,8.00
2022-07-26T23:57:03.930Z,8.18
2022-07-26T23:59:30.977Z,7.03
